Time;durP1;ratioP1;P1;durP2;ratioP2;P2;SDS_P1;SDS_P2;PMS_P1;PMS_P2;Temp;Humidity;BMP_temperature;BMP_pressure;BME280_temperature;BME280_humidity;BME280_pressure;Samples;Min_cycle;Max_cycle;Signal;HPM_P1;HPM_P2
2023/10/14 00:01:11;;;;;;;4.97;4.40;;;28.80;99.90;;;;;;5056580;28;20116;-45
2023/10/14 00:03:41;;;;;;;5.00;4.13;;;28.80;99.90;;;;;;5055875;28;20416;-45
2023/10/14 00:06:10;;;;;;;6.35;5.05;;;28.80;99.90;;;;;;5037947;28;20025;-45
2023/10/14 00:09:21;;;;;;;4.85;4.18;;;28.70;99.90;;;;;;5055948;28;20036;-45
2023/10/14 00:11:53;;;;;;;4.78;4.07;;;28.80;99.90;;;;;;5044918;28;20031;-44
2023/10/14 00:14:18;;;;;;;5.43;4.35;;;28.70;99.90;;;;;;5055482;28;20029;-45
2023/10/14 00:16:51;;;;;;;5.25;4.70;;;28.80;99.90;;;;;;5055873;28;20024;-45
2023/10/14 00:19:22;;;;;;;4.60;3.92;;;28.70;99.90;;;;;;5055712;28;20025;-45
2023/10/14 00:21:49;;;;;;;4.78;4.38;;;28.60;99.90;;;;;;5055554;28;20488;-45
2023/10/14 00:24:27;;;;;;;4.78;4.38;;;28.70;99.90;;;;;;5055680;28;20037;-45
2023/10/14 00:26:54;;;;;;;5.45;4.35;;;28.70;99.90;;;;;;5055458;28;20428;-45
2023/10/14 00:29:20;;;;;;;4.70;4.27;;;28.60;99.90;;;;;;5055400;28;20020;-45
2023/10/14 00:31:50;;;;;;;5.28;4.50;;;28.60;99.90;;;;;;5037625;28;20029;-45
2023/10/14 00:34:21;;;;;;;4.53;4.13;;;28.60;99.90;;;;;;5055304;28;20028;-45
2023/10/14 00:36:47;;;;;;;4.85;4.32;;;28.60;99.90;;;;;;5055301;28;20074;-45
2023/10/14 00:39:14;;;;;;;6.95;4.85;;;28.60;99.90;;;;;;5055559;28;20033;-45
2023/10/14 00:41:42;;;;;;;4.77;4.23;;;28.60;99.90;;;;;;5055136;28;20112;-45
2023/10/14 00:44:08;;;;;;;4.90;4.40;;;28.60;99.90;;;;;;5054988;28;20033;-44
2023/10/14 00:46:35;;;;;;;5.07;4.15;;;28.60;99.90;;;;;;5055004;28;20167;-45
2023/10/14 00:49:04;;;;;;;4.70;4.30;;;28.60;99.90;;;;;;5055255;28;20075;-45
2023/10/14 00:51:33;;;;;;;5.05;4.25;;;28.60;99.90;;;;;;5054928;28;20021;-45
2023/10/14 00:54:05;;;;;;;5.20;4.55;;;28.60;99.90;;;;;;5054912;28;20044;-46
2023/10/14 00:56:31;;;;;;;5.75;4.60;;;28.60;99.90;;;;;;5055028;28;20021;-46
2023/10/14 00:58:59;;;;;;;4.65;4.20;;;28.60;99.90;;;;;;5054687;28;20028;-45
2023/10/14 01:01:28;;;;;;;5.18;4.68;;;28.50;99.90;;;;;;5054955;28;20048;-45
2023/10/14 01:04:40;;;;;;;5.50;4.50;;;28.60;99.90;;;;;;5036374;28;20060;-45
2023/10/14 01:07:13;;;;;;;4.60;3.97;;;28.50;99.90;;;;;;5046566;28;20041;-45
2023/10/14 01:12:16;;;;;;;5.05;4.55;;;28.50;99.90;;;;;;5054621;28;20029;-45
2023/10/14 01:14:46;;;;;;;6.40;4.97;;;28.50;99.90;;;;;;5054534;28;20025;-44
2023/10/14 01:17:31;;;;;;;4.88;4.43;;;28.50;99.90;;;;;;5054646;28;20025;-46
2023/10/14 01:22:40;;;;;;;7.63;5.25;;;28.50;99.90;;;;;;5054156;28;20075;-46
2023/10/14 01:25:14;;;;;;;4.78;4.28;;;28.50;99.90;;;;;;5036937;28;20576;-45
2023/10/14 01:27:44;;;;;;;6.40;4.72;;;28.40;99.90;;;;;;5054366;28;20057;-47
2023/10/14 01:30:25;;;;;;;5.13;4.70;;;28.40;99.90;;;;;;5054358;28;20028;-48
2023/10/14 01:32:51;;;;;;;4.85;4.35;;;28.40;99.90;;;;;;5054009;28;20108;-48
2023/10/14 01:37:52;;;;;;;4.68;4.18;;;28.40;99.90;;;;;;5054079;28;20389;-45
2023/10/14 01:42:48;;;;;;;5.03;4.53;;;28.40;99.90;;;;;;5054222;28;20035;-47
2023/10/14 01:45:20;;;;;;;4.85;4.45;;;28.30;99.90;;;;;;5053826;28;20108;-47
2023/10/14 01:48:05;;;;;;;4.80;4.30;;;28.40;99.90;;;;;;5036080;28;20025;-46
2023/10/14 01:50:32;;;;;;;6.53;4.35;;;28.40;99.90;;;;;;5053663;28;20496;-46
2023/10/14 01:53:08;;;;;;;5.13;4.60;;;28.40;99.90;;;;;;5053711;28;20538;-47
2023/10/14 01:55:35;;;;;;;5.47;4.35;;;28.30;99.90;;;;;;5053674;28;20281;-45
2023/10/14 01:58:09;;;;;;;5.90;4.73;;;28.30;99.90;;;;;;5053689;28;20021;-45
2023/10/14 02:00:39;;;;;;;6.10;4.82;;;28.30;99.90;;;;;;5054203;28;20025;-46
2023/10/14 02:03:10;;;;;;;5.63;4.85;;;28.30;99.90;;;;;;5035685;28;20393;-45
2023/10/14 02:05:41;;;;;;;5.38;4.88;;;28.30;99.90;;;;;;5053790;28;20025;-46
2023/10/14 02:08:15;;;;;;;5.45;4.93;;;28.30;99.90;;;;;;5053679;28;20028;-45
2023/10/14 02:10:53;;;;;;;4.75;4.18;;;28.30;99.90;;;;;;5053377;28;20060;-45
2023/10/14 02:13:22;;;;;;;7.35;4.78;;;28.30;99.90;;;;;;5053216;28;20021;-45
2023/10/14 02:15:50;;;;;;;5.72;5.13;;;28.30;99.90;;;;;;5053474;28;20057;-45
2023/10/14 02:18:20;;;;;;;5.32;4.82;;;28.30;99.90;;;;;;5035814;28;20017;-46
2023/10/14 02:21:35;;;;;;;8.30;6.32;;;28.30;99.90;;;;;;5053274;28;20110;-45
2023/10/14 02:23:49;;;;;;;7.65;5.68;;;28.30;99.90;;;;;;5042489;28;20049;-46
2023/10/14 02:26:24;;;;;;;9.10;5.57;;;28.30;99.90;;;;;;5035252;28;20028;-45
2023/10/14 02:28:52;;;;;;;8.10;5.05;;;28.30;99.90;;;;;;5036170;28;20389;-45
2023/10/14 02:31:28;;;;;;;;;;;28.30;99.90;;;;;;5053802;28;20024;-46
2023/10/14 02:34:05;;;;;;;6.40;5.80;;;28.30;99.90;;;;;;5053102;28;19911;-45
2023/10/14 02:36:35;;;;;;;9.98;5.85;;;28.30;99.90;;;;;;5053146;28;20052;-46
2023/10/14 02:39:12;;;;;;;7.22;5.75;;;28.30;99.90;;;;;;5053029;28;20067;-45
2023/10/14 02:41:40;;;;;;;9.65;6.30;;;28.20;99.90;;;;;;5052922;28;20025;-45
2023/10/14 02:46:32;;;;;;;7.28;6.45;;;28.20;99.90;;;;;;5052723;28;20110;-46
2023/10/14 02:49:02;;;;;;;7.88;6.45;;;28.20;99.90;;;;;;5052974;28;20068;-45
2023/10/14 02:54:15;;;;;;;7.60;5.95;;;28.30;99.90;;;;;;5052708;28;20036;-45
2023/10/14 02:59:35;;;;;;;9.18;5.93;;;28.30;99.90;;;;;;5052680;28;20108;-46
2023/10/14 03:04:44;;;;;;;8.18;6.68;;;28.20;99.90;;;;;;5052459;28;20047;-46
2023/10/14 03:07:10;;;;;;;8.45;6.22;;;28.20;99.90;;;;;;5052268;28;20078;-45
2023/10/14 03:09:35;;;;;;;11.32;6.22;;;28.30;99.90;;;;;;5052437;28;20533;-45
2023/10/14 03:12:01;;;;;;;6.95;5.90;;;28.20;99.90;;;;;;5052433;28;20075;-46
2023/10/14 03:14:30;;;;;;;8.60;6.60;;;28.20;99.90;;;;;;5052211;28;20094;-46
2023/10/14 03:16:57;;;;;;;6.60;5.72;;;28.30;99.90;;;;;;5052394;28;20074;-46
2023/10/14 03:19:25;;;;;;;8.55;6.20;;;28.20;99.90;;;;;;5052623;28;20541;-46
2023/10/14 03:22:00;;;;;;;6.40;5.80;;;28.30;99.90;;;;;;5052418;28;20029;-46
2023/10/14 03:24:30;;;;;;;7.65;6.03;;;28.20;99.90;;;;;;5035679;28;20362;-45
2023/10/14 03:27:04;;;;;;;8.50;5.85;;;28.20;99.90;;;;;;5052206;28;20025;-45
2023/10/14 03:29:30;;;;;;;7.43;5.75;;;28.20;99.90;;;;;;5052084;28;20017;-45
2023/10/14 03:31:56;;;;;;;7.90;6.22;;;28.30;99.90;;;;;;5051994;28;20029;-46
2023/10/14 03:34:31;;;;;;;7.93;6.05;;;28.30;99.90;;;;;;5052371;28;20021;-45
2023/10/14 03:37:00;;;;;;;7.90;5.50;;;28.30;99.90;;;;;;5052310;28;20017;-45
2023/10/14 03:39:46;;;;;;;7.40;6.25;;;28.20;99.90;;;;;;5052353;28;20424;-45
2023/10/14 03:42:15;;;;;;;7.93;5.97;;;28.30;99.90;;;;;;5052112;28;20021;-45
2023/10/14 03:44:41;;;;;;;6.45;5.82;;;28.20;99.90;;;;;;5052066;28;20029;-45
2023/10/14 03:47:15;;;;;;;6.72;5.90;;;28.20;99.90;;;;;;5052078;28;20048;-45
2023/10/14 03:49:43;;;;;;;7.50;6.10;;;28.20;99.90;;;;;;5051996;28;20469;-45
2023/10/14 03:52:12;;;;;;;7.35;6.18;;;28.30;99.90;;;;;;5052083;28;20053;-45
2023/10/14 03:54:45;;;;;;;7.40;6.30;;;28.20;99.90;;;;;;5052023;28;20095;-46
2023/10/14 03:57:32;;;;;;;8.30;6.90;;;28.20;99.90;;;;;;5052055;28;20029;-45
2023/10/14 03:59:56;;;;;;;6.80;6.07;;;28.20;99.90;;;;;;5051678;28;20444;-45
2023/10/14 04:02:25;;;;;;;8.73;6.53;;;28.20;99.90;;;;;;5036280;28;20076;-46
2023/10/14 04:04:58;;;;;;;10.27;6.60;;;28.20;99.90;;;;;;5031985;28;20044;-45
2023/10/14 04:07:28;;;;;;;6.43;5.78;;;28.20;99.90;;;;;;5032256;28;20048;-46
2023/10/14 04:10:04;;;;;;;8.93;6.18;;;28.20;99.90;;;;;;5032084;28;20033;-45
2023/10/14 04:15:15;;;;;;;7.20;5.80;;;28.20;99.90;;;;;;5031862;28;20028;-46
2023/10/14 04:17:46;;;;;;;8.75;6.22;;;28.20;99.90;;;;;;5031896;28;20049;-47
2023/10/14 04:30:25;;;;;;;7.80;6.30;;;28.10;99.90;;;;;;5031932;28;20111;-46
2023/10/14 04:35:23;;;;;;;6.90;5.25;;;28.20;99.90;;;;;;5031692;28;20029;-46
2023/10/14 04:37:54;;;;;;;8.45;5.97;;;28.10;99.90;;;;;;5033487;28;20389;-46
2023/10/14 04:45:51;;;;;;;7.22;5.90;;;28.10;99.90;;;;;;5035418;28;20040;-46
2023/10/14 04:51:07;;;;;;;8.07;5.90;;;28.10;99.90;;;;;;5035416;28;20025;-46
2023/10/14 04:53:34;;;;;;;8.70;5.97;;;28.10;99.90;;;;;;5035091;28;20030;-45
2023/10/14 04:56:09;;;;;;;7.65;5.97;;;28.10;99.90;;;;;;5035056;28;20187;-45
2023/10/14 04:58:40;;;;;;;6.35;5.22;;;28.10;99.90;;;;;;5035136;28;20048;-45
2023/10/14 05:01:09;;;;;;;8.63;6.00;;;28.00;99.90;;;;;;5034849;28;20048;-45
2023/10/14 05:03:35;;;;;;;6.82;5.18;;;28.00;99.90;;;;;;5034969;28;20112;-46
2023/10/14 05:06:14;;;;;;;6.30;5.22;;;28.00;99.90;;;;;;5034906;28;20017;-45
2023/10/14 05:08:44;;;;;;;9.32;5.25;;;28.00;99.90;;;;;;5034653;28;20072;-45
2023/10/14 05:11:27;;;;;;;8.70;6.13;;;28.00;99.90;;;;;;5034687;28;20112;-46
2023/10/14 05:14:34;;;;;;;6.25;5.45;;;28.00;99.90;;;;;;5034669;28;20037;-45
2023/10/14 05:17:03;;;;;;;6.72;5.50;;;28.00;99.90;;;;;;5032357;28;20455;-45
2023/10/14 05:20:16;;;;;;;8.27;4.90;;;28.00;99.90;;;;;;5034830;28;20025;-46
2023/10/14 05:22:23;;;;;;;7.10;5.75;;;28.00;99.90;;;;;;5026284;28;20029;-46
2023/10/14 05:25:02;;;;;;;10.52;6.20;;;28.00;99.90;;;;;;5034321;28;20061;-46
2023/10/14 05:27:35;;;;;;;8.38;5.50;;;28.00;99.90;;;;;;5034671;28;20056;-46
2023/10/14 05:30:06;;;;;;;6.47;5.20;;;27.90;99.90;;;;;;5034507;28;20049;-46
2023/10/14 05:32:32;;;;;;;8.60;5.53;;;28.00;99.90;;;;;;5034310;28;20053;-46
2023/10/14 05:34:59;;;;;;;7.78;5.05;;;27.90;99.90;;;;;;5034631;28;20075;-46
2023/10/14 05:37:26;;;;;;;7.65;5.50;;;27.90;99.90;;;;;;5034294;28;20048;-46
2023/10/14 05:39:54;;;;;;;7.57;5.43;;;27.90;99.90;;;;;;5034161;28;20076;-46
2023/10/14 05:42:24;;;;;;;6.10;4.93;;;27.90;99.90;;;;;;5034315;28;20523;-45
2023/10/14 05:45:01;;;;;;;6.18;5.25;;;27.90;99.90;;;;;;5033992;28;20037;-46
2023/10/14 05:47:27;;;;;;;6.88;5.25;;;27.90;99.90;;;;;;5033949;28;20052;-46
2023/10/14 05:49:53;;;;;;;9.73;5.40;;;27.90;99.90;;;;;;5032929;28;20037;-45
2023/10/14 05:52:24;;;;;;;6.88;5.15;;;27.90;99.90;;;;;;5033896;28;20037;-46
2023/10/14 05:54:50;;;;;;;5.90;4.85;;;27.90;99.90;;;;;;5033797;28;20026;-46
2023/10/14 05:57:17;;;;;;;6.18;4.88;;;27.80;99.90;;;;;;5033598;28;20124;-45
2023/10/14 05:59:43;;;;;;;7.97;5.45;;;27.80;99.90;;;;;;5033844;28;20115;-45
2023/10/14 06:02:13;;;;;;;9.37;5.10;;;27.80;99.90;;;;;;5046581;28;20591;-45
2023/10/14 06:04:39;;;;;;;5.93;5.03;;;27.80;99.90;;;;;;5053498;28;20120;-45
2023/10/14 06:07:12;;;;;;;4.90;4.47;;;27.80;99.90;;;;;;5053602;28;20040;-45
2023/10/14 06:09:39;;;;;;;7.20;5.45;;;27.80;99.90;;;;;;5053510;28;20060;-45
2023/10/14 06:12:16;;;;;;;6.75;4.88;;;27.80;99.90;;;;;;5053497;28;20349;-44
2023/10/14 06:14:42;;;;;;;;;;;27.80;99.90;;;;;;5054008;28;20384;-45
2023/10/14 06:17:08;;;;;;;6.28;5.05;;;27.80;99.90;;;;;;5053427;28;19911;-45
2023/10/14 06:19:36;;;;;;;5.43;4.80;;;27.80;99.90;;;;;;5053121;28;20021;-45
2023/10/14 06:22:02;;;;;;;5.95;4.72;;;27.70;99.90;;;;;;5053505;28;20051;-44
2023/10/14 06:24:29;;;;;;;6.10;4.70;;;27.70;99.90;;;;;;5053113;28;20421;-45
2023/10/14 06:27:40;;;;;;;5.68;4.85;;;27.70;99.90;;;;;;5053197;28;20029;-45
2023/10/14 06:29:42;;;;;;;7.32;5.28;;;27.70;99.90;;;;;;5042256;28;20040;-45
2023/10/14 06:32:07;;;;;;;7.72;5.13;;;27.70;99.90;;;;;;5053011;28;20017;-45
2023/10/14 06:34:34;;;;;;;6.55;5.50;;;27.70;99.90;;;;;;5035442;28;20440;-44
2023/10/14 06:37:07;;;;;;;7.68;4.82;;;27.70;99.90;;;;;;5053408;28;20104;-45
2023/10/14 06:39:39;;;;;;;6.38;4.65;;;27.70;99.90;;;;;;5053275;28;20072;-44
2023/10/14 06:42:05;;;;;;;6.35;5.38;;;27.70;99.90;;;;;;5052847;28;20025;-45
2023/10/14 06:44:32;;;;;;;6.10;4.88;;;27.70;99.90;;;;;;5053169;28;20061;-45
2023/10/14 06:46:58;;;;;;;5.93;5.20;;;27.70;99.90;;;;;;5052848;28;20021;-45
2023/10/14 06:49:32;;;;;;;5.90;5.25;;;27.70;99.90;;;;;;5052871;28;20024;-45
2023/10/14 06:51:58;;;;;;;7.32;4.93;;;27.70;99.90;;;;;;5052713;28;20017;-45
2023/10/14 06:54:30;;;;;;;6.15;4.68;;;27.70;99.90;;;;;;5052696;28;20043;-45
2023/10/14 06:56:56;;;;;;;4.82;4.10;;;27.70;99.90;;;;;;5052634;28;20068;-45
2023/10/14 06:59:22;;;;;;;6.15;4.13;;;27.70;99.90;;;;;;5034657;28;20407;-45
2023/10/14 07:01:48;;;;;;;6.28;5.07;;;27.70;99.90;;;;;;5052307;28;20052;-46
2023/10/14 07:04:16;;;;;;;6.35;4.95;;;27.70;99.90;;;;;;5052545;28;20386;-45
2023/10/14 07:06:47;;;;;;;6.10;4.82;;;27.70;99.90;;;;;;5052475;28;20477;-45
2023/10/14 07:09:17;;;;;;;5.70;4.53;;;27.70;99.90;;;;;;5052369;28;20410;-45
2023/10/14 07:11:47;;;;;;;6.03;5.05;;;27.70;99.90;;;;;;5052460;28;20122;-45
2023/10/14 07:14:13;;;;;;;7.22;4.40;;;27.70;99.90;;;;;;5052359;28;20021;-45
2023/10/14 07:16:40;;;;;;;5.25;4.60;;;27.70;99.90;;;;;;5052462;28;20021;-46
2023/10/14 07:19:05;;;;;;;5.15;4.30;;;27.70;99.90;;;;;;5052549;28;20029;-45
2023/10/14 07:21:31;;;;;;;5.80;4.22;;;27.60;99.90;;;;;;5052165;28;20052;-45
2023/10/14 07:24:05;;;;;;;5.90;4.47;;;27.70;99.90;;;;;;5052170;28;20044;-44
2023/10/14 07:26:36;;;;;;;8.98;4.63;;;27.70;99.90;;;;;;5052212;28;20425;-45
2023/10/14 07:29:03;;;;;;;6.28;4.78;;;27.60;99.90;;;;;;5052185;28;20079;-45
2023/10/14 07:31:31;;;;;;;5.80;5.20;;;27.70;99.90;;;;;;5052272;28;20095;-45
2023/10/14 07:34:03;;;;;;;6.38;4.78;;;27.70;99.90;;;;;;5034317;28;20564;-45
2023/10/14 07:36:32;;;;;;;7.32;4.50;;;27.70;99.90;;;;;;5052231;28;20021;-45
2023/10/14 07:39:04;;;;;;;6.32;5.18;;;27.70;99.90;;;;;;5052271;28;20036;-45
2023/10/14 07:41:30;;;;;;;7.18;4.30;;;27.60;99.90;;;;;;5052131;28;20055;-45
2023/10/14 07:43:56;;;;;;;7.35;4.57;;;27.60;99.90;;;;;;5034401;28;20497;-46
2023/10/14 07:46:23;;;;;;;7.22;4.63;;;27.60;99.90;;;;;;5052032;28;20076;-46
2023/10/14 07:48:53;;;;;;;5.80;4.53;;;27.60;99.90;;;;;;5051842;28;20025;-46
2023/10/14 07:51:18;;;;;;;4.88;4.32;;;27.60;99.90;;;;;;5052095;28;20726;-45
2023/10/14 07:53:44;;;;;;;5.07;4.38;;;27.60;99.90;;;;;;5052026;28;20064;-46
2023/10/14 07:56:10;;;;;;;7.57;5.07;;;27.60;99.90;;;;;;5051706;28;20021;-46
2023/10/14 07:58:36;;;;;;;6.90;4.60;;;27.60;99.90;;;;;;5052002;28;20029;-46
2023/10/14 08:01:09;;;;;;;6.40;4.17;;;27.60;99.90;;;;;;5033916;28;20142;-45
2023/10/14 08:03:36;;;;;;;5.93;4.55;;;27.60;99.90;;;;;;5052022;28;20032;-46
2023/10/14 08:06:05;;;;;;;6.27;4.27;;;27.60;99.90;;;;;;5051969;28;20444;-46
2023/10/14 08:08:31;;;;;;;7.47;4.60;;;27.60;99.90;;;;;;5051824;28;20025;-46
2023/10/14 08:11:00;;;;;;;5.40;4.13;;;27.60;99.90;;;;;;5051897;28;20029;-46
2023/10/14 08:13:27;;;;;;;6.18;4.20;;;27.60;99.90;;;;;;5054819;28;20048;-46
2023/10/14 08:15:56;;;;;;;8.15;4.22;;;27.60;99.90;;;;;;5055747;28;20040;-48
2023/10/14 08:18:26;;;;;;;5.22;4.40;;;27.60;99.90;;;;;;5055652;28;20047;-46
2023/10/14 08:20:55;;;;;;;5.43;3.97;;;27.60;99.90;;;;;;5055530;28;20031;-45
2023/10/14 08:23:25;;;;;;;7.00;4.32;;;27.60;99.90;;;;;;5055518;28;20048;-45
2023/10/14 08:25:54;;;;;;;7.28;4.70;;;27.70;99.90;;;;;;5055544;28;20053;-45
2023/10/14 08:28:24;;;;;;;5.25;4.75;;;27.70;99.90;;;;;;5055238;28;20031;-45
2023/10/14 08:30:50;;;;;;;7.32;4.60;;;27.70;99.90;;;;;;5055510;28;20560;-45
2023/10/14 08:33:19;;;;;;;8.97;4.37;;;27.70;99.90;;;;;;5055364;28;20049;-46
2023/10/14 08:35:45;;;;;;;6.82;4.18;;;27.70;99.90;;;;;;5055365;28;20270;-46
2023/10/14 08:38:14;;;;;;;5.77;4.70;;;27.70;99.90;;;;;;5055164;28;20417;-45
2023/10/14 08:40:41;;;;;;;7.32;4.70;;;27.70;99.90;;;;;;5055866;28;20621;-45
2023/10/14 08:43:14;;;;;;;5.68;4.20;;;27.70;99.90;;;;;;5055369;28;20056;-45
2023/10/14 08:45:41;;;;;;;6.93;4.50;;;27.70;99.90;;;;;;5055308;28;20033;-45
2023/10/14 08:48:11;;;;;;;4.72;4.15;;;27.70;99.90;;;;;;5055457;28;20017;-45
2023/10/14 08:50:39;;;;;;;5.93;4.53;;;27.70;99.90;;;;;;5055346;28;20032;-46
2023/10/14 08:53:24;;;;;;;10.05;4.43;;;27.70;99.90;;;;;;5054935;28;20025;-46
2023/10/14 08:55:54;;;;;;;5.65;4.10;;;27.70;99.90;;;;;;5036951;28;20024;-46
2023/10/14 08:58:23;;;;;;;6.78;5.05;;;27.70;99.90;;;;;;5037506;28;20488;-46
2023/10/14 09:00:52;;;;;;;5.60;4.45;;;27.70;99.90;;;;;;5054498;28;20056;-46
2023/10/14 09:03:18;;;;;;;6.00;4.90;;;27.70;99.90;;;;;;5054675;28;20040;-46
2023/10/14 09:05:44;;;;;;;6.22;5.10;;;27.70;99.90;;;;;;5054601;28;20021;-46
2023/10/14 09:08:15;;;;;;;6.23;5.13;;;27.70;99.90;;;;;;5054798;28;20082;-46
2023/10/14 09:10:42;;;;;;;5.95;4.75;;;27.70;99.90;;;;;;5054918;28;20262;-46
2023/10/14 09:13:09;;;;;;;9.52;4.90;;;27.70;99.90;;;;;;5054789;28;20024;-46
2023/10/14 09:15:41;;;;;;;6.90;4.78;;;27.70;99.90;;;;;;5054566;28;20025;-46
2023/10/14 09:18:16;;;;;;;8.20;5.10;;;27.70;99.90;;;;;;5054427;28;20021;-46
2023/10/14 09:20:43;;;;;;;7.47;4.82;;;27.70;99.90;;;;;;5054630;28;20044;-46
2023/10/14 09:23:19;;;;;;;7.68;4.72;;;27.70;99.90;;;;;;5054455;28;20029;-46
2023/10/14 09:25:55;;;;;;;7.47;4.68;;;27.70;99.90;;;;;;5054332;28;20020;-45
2023/10/14 09:28:23;;;;;;;8.52;4.82;;;27.70;99.90;;;;;;5054327;28;20377;-46
2023/10/14 09:30:51;;;;;;;7.20;5.05;;;27.70;99.90;;;;;;5054111;28;20029;-46
2023/10/14 09:33:21;;;;;;;10.48;5.32;;;27.70;99.90;;;;;;5054302;28;20083;-45
2023/10/14 09:35:49;;;;;;;5.25;4.20;;;27.70;99.90;;;;;;5054218;28;20017;-46
2023/10/14 09:38:26;;;;;;;4.90;4.20;;;27.70;99.90;;;;;;5054232;28;20082;-46
2023/10/14 09:40:57;;;;;;;5.73;4.43;;;27.70;99.90;;;;;;5036184;28;20465;-47
2023/10/14 09:43:27;;;;;;;6.70;4.63;;;27.70;99.90;;;;;;5053877;28;20040;-45
2023/10/14 09:45:57;;;;;;;6.45;4.82;;;27.70;99.90;;;;;;5054120;28;20377;-45
2023/10/14 09:48:31;;;;;;;5.10;4.18;;;27.80;99.90;;;;;;5054047;28;20381;-45
2023/10/14 09:51:01;;;;;;;7.10;5.22;;;27.70;99.90;;;;;;5053988;28;20347;-45
2023/10/14 09:53:32;;;;;;;5.50;4.50;;;27.70;99.90;;;;;;5053822;28;20017;-45
2023/10/14 09:56:18;;;;;;;5.40;4.57;;;27.80;99.90;;;;;;5035689;28;20389;-45
2023/10/14 09:58:46;;;;;;;7.10;5.50;;;27.80;99.90;;;;;;5053772;28;20029;-45
2023/10/14 10:01:19;;;;;;;5.78;4.95;;;27.80;99.90;;;;;;5053769;28;20103;-45
2023/10/14 10:04:12;;;;;;;6.43;4.75;;;27.80;99.90;;;;;;5035810;28;20037;-46
2023/10/14 10:07:16;;;;;;;7.43;4.60;;;27.80;99.90;;;;;;5053756;28;20507;-45
2023/10/14 10:09:57;;;;;;;5.78;4.97;;;27.80;99.90;;;;;;4992011;28;20022;-45
2023/10/14 10:12:25;;;;;;;6.78;4.45;;;27.80;99.90;;;;;;5048145;28;20040;-45
2023/10/14 10:15:01;;;;;;;6.07;4.78;;;27.80;99.90;;;;;;5053311;28;20037;-45
2023/10/14 10:17:27;;;;;;;5.93;5.00;;;27.80;99.90;;;;;;5053408;28;20024;-45
2023/10/14 10:20:12;;;;;;;6.38;4.88;;;27.80;99.90;;;;;;5053205;28;20029;-45
2023/10/14 10:23:06;;;;;;;6.32;4.80;;;27.80;99.90;;;;;;5035089;28;20154;-45
2023/10/14 10:25:37;;;;;;;6.78;4.00;;;27.80;99.90;;;;;;5033465;28;20075;-45
2023/10/14 10:28:25;;;;;;;7.18;5.20;;;27.80;99.90;;;;;;5052932;28;20033;-45
2023/10/14 10:30:52;;;;;;;6.38;4.57;;;27.80;99.90;;;;;;5043188;28;20076;-45
2023/10/14 10:33:18;;;;;;;5.28;4.65;;;27.80;99.90;;;;;;5052768;28;20036;-45
2023/10/14 10:35:57;;;;;;;6.03;4.93;;;27.90;99.90;;;;;;5018317;28;20021;-45
2023/10/14 10:38:24;;;;;;;6.50;4.90;;;27.90;99.90;;;;;;5052952;28;20481;-45
2023/10/14 10:41:24;;;;;;;6.45;5.20;;;27.90;99.90;;;;;;5052812;28;20031;-46
2023/10/14 10:44:01;;;;;;;6.68;4.95;;;27.90;99.90;;;;;;5052580;28;20039;-45
2023/10/14 10:46:39;;;;;;;6.95;5.38;;;27.90;99.90;;;;;;5035535;28;20109;-45
2023/10/14 10:49:06;;;;;;;5.97;5.10;;;27.90;99.90;;;;;;5052671;28;20025;-45
2023/10/14 10:51:35;;;;;;;9.75;5.75;;;28.00;99.90;;;;;;5052596;28;20072;-45
2023/10/14 10:54:02;;;;;;;6.00;5.18;;;27.90;99.90;;;;;;5052470;28;20025;-45
2023/10/14 10:56:34;;;;;;;6.75;5.18;;;28.00;99.90;;;;;;5052359;28;20143;-45
2023/10/14 10:59:04;;;;;;;5.38;4.88;;;28.00;99.90;;;;;;5034675;28;20092;-46
2023/10/14 11:01:34;;;;;;;8.60;5.47;;;28.00;99.90;;;;;;5052308;28;20044;-45
2023/10/14 11:04:08;;;;;;;6.65;5.05;;;28.00;99.90;;;;;;5034434;28;20052;-45
2023/10/14 11:06:35;;;;;;;7.72;5.50;;;28.00;99.90;;;;;;5052257;28;20029;-45
2023/10/14 11:09:01;;;;;;;;;;;28.10;99.90;;;;;;5052601;28;20377;-45
2023/10/14 11:11:33;;;;;;;7.18;4.88;;;28.10;99.90;;;;;;5052316;28;19905;-46
2023/10/14 11:14:02;;;;;;;8.90;5.32;;;28.10;99.90;;;;;;5052372;28;20143;-45
2023/10/14 11:16:29;;;;;;;8.95;5.28;;;28.10;99.90;;;;;;5052155;28;20021;-45
2023/10/14 11:18:56;;;;;;;6.73;5.50;;;28.20;99.90;;;;;;5052201;28;20029;-46
2023/10/14 11:21:27;;;;;;;5.70;4.88;;;28.20;99.90;;;;;;5052189;28;20032;-46
2023/10/14 11:23:54;;;;;;;7.75;5.80;;;28.20;99.90;;;;;;5052019;28;20041;-45
2023/10/14 11:26:20;;;;;;;6.30;5.15;;;28.20;99.90;;;;;;5052087;28;20041;-46
2023/10/14 11:28:48;;;;;;;5.80;5.20;;;28.20;99.90;;;;;;5034538;28;20036;-46
2023/10/14 11:31:14;;;;;;;;;;;28.20;99.90;;;;;;5052549;28;20028;-46
2023/10/14 11:33:45;;;;;;;8.25;5.15;;;28.20;99.90;;;;;;5051977;28;20272;-45
2023/10/14 11:36:19;;;;;;;9.00;5.13;;;28.30;99.90;;;;;;5051954;28;20037;-46
2023/10/14 11:38:48;;;;;;;8.32;6.38;;;28.30;99.90;;;;;;5051932;28;20021;-46
2023/10/14 11:41:17;;;;;;;7.65;5.50;;;28.40;99.90;;;;;;5051986;28;20362;-46
2023/10/14 11:43:46;;;;;;;7.00;5.57;;;28.40;99.90;;;;;;5051760;28;20033;-46
2023/10/14 11:46:12;;;;;;;5.47;4.90;;;28.50;99.90;;;;;;5033954;28;20198;-46
2023/10/14 11:48:38;;;;;;;6.93;5.18;;;28.50;99.90;;;;;;5055213;28;20029;-46
2023/10/14 11:51:11;;;;;;;6.28;4.97;;;28.50;99.90;;;;;;5055983;28;20092;-46
2023/10/14 11:53:46;;;;;;;8.07;5.75;;;28.60;99.90;;;;;;5055814;28;20017;-47
2023/10/14 11:56:16;;;;;;;6.15;4.60;;;28.60;99.90;;;;;;5055760;28;20016;-45
2023/10/14 11:58:42;;;;;;;8.80;4.80;;;28.70;99.90;;;;;;5055710;28;20025;-46
2023/10/14 12:01:11;;;;;;;6.95;5.32;;;28.70;99.90;;;;;;5055746;28;20037;-46
2023/10/14 12:03:38;;;;;;;6.72;5.80;;;28.70;99.90;;;;;;5055631;28;20124;-45
2023/10/14 12:06:12;;;;;;;5.55;4.90;;;28.80;99.90;;;;;;5055757;28;20029;-46
2023/10/14 12:08:38;;;;;;;6.35;4.72;;;28.80;99.90;;;;;;5055613;28;20029;-46
2023/10/14 12:11:05;;;;;;;5.82;5.13;;;28.80;99.90;;;;;;5055558;28;20043;-46
2023/10/14 12:13:31;;;;;;;6.53;5.00;;;28.80;99.90;;;;;;5055468;28;20493;-46
2023/10/14 12:15:57;;;;;;;5.73;5.20;;;28.80;99.90;;;;;;5055617;28;20040;-46
2023/10/14 12:18:23;;;;;;;6.50;5.63;;;28.80;99.90;;;;;;5055696;28;20067;-46
2023/10/14 12:20:50;;;;;;;8.20;5.13;;;28.80;99.90;;;;;;5055612;28;20055;-46
2023/10/14 12:23:18;;;;;;;6.68;5.15;;;28.80;99.90;;;;;;5055521;28;20029;-46
2023/10/14 12:25:48;;;;;;;6.18;4.88;;;28.90;99.90;;;;;;5055490;28;20029;-46
2023/10/14 12:28:27;;;;;;;5.53;4.78;;;28.80;99.90;;;;;;5055448;28;20025;-46
2023/10/14 12:30:56;;;;;;;7.97;5.95;;;28.90;99.90;;;;;;5055377;28;20049;-46
2023/10/14 12:33:24;;;;;;;6.07;4.90;;;28.90;99.90;;;;;;5055530;28;20025;-46
2023/10/14 12:35:53;;;;;;;5.53;4.75;;;28.90;99.90;;;;;;5037892;28;20021;-49
2023/10/14 12:38:20;;;;;;;7.22;5.22;;;29.00;99.90;;;;;;5055258;28;20021;-46
2023/10/14 12:40:49;;;;;;;14.63;5.63;;;29.00;99.90;;;;;;5037288;28;20029;-46
2023/10/14 12:43:28;;;;;;;6.95;5.22;;;28.90;99.90;;;;;;5054897;28;20029;-46
2023/10/14 12:46:09;;;;;;;7.68;5.60;;;28.90;99.90;;;;;;5055132;28;20061;-46
2023/10/14 12:48:41;;;;;;;6.57;5.28;;;29.00;99.90;;;;;;5054956;28;20056;-46
2023/10/14 12:51:12;;;;;;;7.28;4.93;;;29.00;99.90;;;;;;5054981;28;20052;-46
2023/10/14 12:53:47;;;;;;;11.02;5.65;;;29.00;99.90;;;;;;5055024;28;20051;-46
2023/10/14 12:56:14;;;;;;;8.77;5.95;;;29.00;99.90;;;;;;5054971;28;20029;-45
2023/10/14 12:58:42;;;;;;;7.13;5.10;;;29.10;99.90;;;;;;5054509;28;20033;-46
2023/10/14 13:01:16;;;;;;;7.88;5.53;;;29.10;99.90;;;;;;5054738;28;20489;-46
2023/10/14 13:03:56;;;;;;;9.05;6.00;;;29.10;99.90;;;;;;5054719;28;20025;-45
2023/10/14 13:06:24;;;;;;;10.02;5.72;;;29.10;99.90;;;;;;5054972;28;20021;-46
2023/10/14 13:08:50;;;;;;;6.75;4.88;;;29.10;99.90;;;;;;5054959;28;20013;-46
2023/10/14 13:11:17;;;;;;;5.82;5.15;;;29.10;99.90;;;;;;5054656;28;20120;-46
2023/10/14 13:13:50;;;;;;;6.47;5.27;;;29.20;99.90;;;;;;5054353;28;20025;-46
2023/10/14 13:16:26;;;;;;;7.70;4.95;;;29.20;99.90;;;;;;5054664;28;20032;-46
2023/10/14 13:18:58;;;;;;;7.90;5.63;;;29.20;99.90;;;;;;5054659;28;20021;-46
2023/10/14 13:21:31;;;;;;;6.07;5.20;;;29.20;99.90;;;;;;5054759;28;20039;-46
2023/10/14 13:24:03;;;;;;;8.35;5.72;;;29.20;99.90;;;;;;5054284;28;20037;-45
2023/10/14 13:26:30;;;;;;;6.07;5.20;;;29.20;99.90;;;;;;5054412;28;20100;-46
2023/10/14 13:28:56;;;;;;;;;;;29.20;99.90;;;;;;5054842;28;20025;-46
2023/10/14 13:31:24;;;;;;;5.82;4.90;;;29.20;99.90;;;;;;5054502;28;19905;-46
2023/10/14 13:33:50;;;;;;;6.10;5.13;;;29.20;99.90;;;;;;5054290;28;20428;-45
2023/10/14 13:36:20;;;;;;;7.82;5.38;;;29.30;99.90;;;;;;5054218;28;20035;-45
2023/10/14 13:38:47;;;;;;;6.47;5.63;;;29.30;99.90;;;;;;5054094;28;20037;-45
2023/10/14 13:41:14;;;;;;;6.28;5.13;;;29.30;99.90;;;;;;5054399;28;20412;-45
2023/10/14 13:43:43;;;;;;;6.25;5.45;;;29.30;99.90;;;;;;5054054;28;20036;-45
2023/10/14 13:46:09;;;;;;;7.07;5.75;;;29.30;99.90;;;;;;5054002;28;20381;-45
2023/10/14 13:48:36;;;;;;;6.40;5.15;;;29.30;99.90;;;;;;5053887;28;20025;-46
2023/10/14 13:51:02;;;;;;;6.63;5.18;;;29.30;99.90;;;;;;5053990;28;20013;-45